createdAt,value
2019-02-15T00:01:44.357Z,0.11
2019-02-15T00:04:12.640Z,0.10
2019-02-15T00:06:40.894Z,0.07
2019-02-15T00:09:09.255Z,0.03
2019-02-15T00:11:37.529Z,-0.01
2019-02-15T00:14:05.881Z,-0.04
2019-02-15T00:16:34.184Z,-0.06
2019-02-15T00:19:04.134Z,-0.10
2019-02-15T00:21:32.447Z,-0.13
2019-02-15T00:24:00.730Z,-2.44
2019-02-15T00:26:28.970Z,-0.16
2019-02-15T00:28:57.239Z,-0.14
2019-02-15T00:31:25.606Z,-0.15
2019-02-15T00:33:53.941Z,-0.15
2019-02-15T00:36:22.234Z,-0.15
2019-02-15T00:38:50.584Z,-0.18
2019-02-15T00:41:18.859Z,-0.19
2019-02-15T00:43:47.152Z,-0.21
2019-02-15T00:46:17.059Z,-0.25
2019-02-15T00:48:45.339Z,-0.30
2019-02-15T00:51:24.154Z,-1.29
2019-02-15T00:53:54.066Z,-0.35
2019-02-15T00:56:23.977Z,-0.37
2019-02-15T00:59:10.087Z,-0.36
2019-02-15T01:01:39.991Z,-0.35
2019-02-15T01:04:11.609Z,-0.37
2019-02-15T01:06:57.652Z,-0.39
2019-02-15T01:09:30.577Z,-0.39
2019-02-15T01:12:06.716Z,-0.40
2019-02-15T01:14:35.016Z,-0.41
2019-02-15T01:17:03.809Z,-0.42
2019-02-15T01:19:32.103Z,-0.46
2019-02-15T01:22:00.415Z,-0.56
2019-02-15T01:24:28.686Z,-0.62
2019-02-15T01:27:01.357Z,-0.65
2019-02-15T01:29:37.424Z,-0.65
2019-02-15T01:32:07.380Z,-0.67
2019-02-15T01:34:40.266Z,-0.69
2019-02-15T01:37:22.208Z,-0.68
2019-02-15T01:39:53.088Z,-0.68
2019-02-15T01:42:23.034Z,-0.66
2019-02-15T01:44:52.962Z,-0.67
2019-02-15T01:47:21.417Z,-0.68
2019-02-15T01:49:49.699Z,-0.67
2019-02-15T01:52:17.990Z,-0.70
2019-02-15T01:54:46.271Z,-0.76
2019-02-15T01:57:14.543Z,-0.83
2019-02-15T01:59:42.821Z,-3.65
2019-02-15T02:02:11.156Z,-0.84
2019-02-15T02:04:39.798Z,-0.86
2019-02-15T02:07:08.158Z,-0.85
2019-02-15T02:09:36.454Z,-0.84
2019-02-15T02:12:05.613Z,-0.83
2019-02-15T02:14:33.902Z,-0.84
2019-02-15T02:17:02.170Z,-0.83
2019-02-15T02:19:30.470Z,-0.85
2019-02-15T02:21:58.749Z,-0.89
2019-02-15T02:24:27.064Z,-0.97
2019-02-15T02:26:55.396Z,-1.00
2019-02-15T02:29:23.666Z,-1.05
2019-02-15T02:31:51.966Z,-1.09
2019-02-15T02:34:20.205Z,-1.10
2019-02-15T02:36:50.829Z,-1.10
2019-02-15T02:39:19.186Z,-1.08
2019-02-15T02:41:47.448Z,-1.05
2019-02-15T02:44:15.726Z,-1.05
2019-02-15T02:46:43.984Z,-1.04
2019-02-15T02:49:12.297Z,-1.03
2019-02-15T02:51:40.573Z,-1.05
2019-02-15T02:54:08.883Z,-1.05
2019-02-15T02:56:37.142Z,-1.03
2019-02-15T02:59:05.404Z,-1.06
2019-02-15T03:01:33.691Z,-1.06
2019-02-15T03:04:01.965Z,-1.02
2019-02-15T03:06:30.223Z,-1.03
2019-02-15T03:08:58.487Z,-1.02
2019-02-15T03:11:26.753Z,-1.01
2019-02-15T03:13:55.043Z,-0.99
2019-02-15T03:16:23.310Z,-0.99
2019-02-15T03:18:51.577Z,-1.00
2019-02-15T03:21:19.850Z,-1.03
2019-02-15T03:23:48.156Z,-1.05
2019-02-15T03:26:16.473Z,-1.04
2019-02-15T03:28:44.736Z,-1.03
2019-02-15T03:31:13.000Z,-1.02
2019-02-15T03:33:41.277Z,-1.01
2019-02-15T03:36:11.202Z,-1.09
2019-02-15T03:38:41.116Z,-1.29
2019-02-15T03:41:11.027Z,-1.36
2019-02-15T03:43:39.300Z,-1.32
2019-02-15T03:46:07.562Z,-1.25
2019-02-15T03:48:35.824Z,-1.20
2019-02-15T03:51:04.081Z,-1.14
2019-02-15T03:53:32.342Z,-1.12
2019-02-15T03:56:00.602Z,-1.08
2019-02-15T03:58:28.876Z,-1.07
2019-02-15T04:00:57.134Z,-1.05
2019-02-15T04:03:25.418Z,-1.04
2019-02-15T04:05:53.689Z,-1.06
2019-02-15T04:08:22.021Z,-1.05
2019-02-15T04:10:50.288Z,-1.07
2019-02-15T04:13:18.565Z,-1.05
2019-02-15T04:15:46.852Z,-1.06
2019-02-15T04:18:15.105Z,-1.05
2019-02-15T04:20:43.403Z,-1.04
2019-02-15T04:23:11.640Z,-1.04
2019-02-15T04:25:39.896Z,-1.03
2019-02-15T04:28:08.170Z,-1.04
2019-02-15T04:30:36.436Z,-1.03
2019-02-15T04:33:04.728Z,-1.05
2019-02-15T04:35:32.999Z,-1.11
2019-02-15T04:38:01.254Z,-1.16
2019-02-15T04:40:29.546Z,-1.21
2019-02-15T04:42:57.811Z,-1.20
2019-02-15T04:45:26.066Z,-1.22
2019-02-15T04:47:54.512Z,-1.23
2019-02-15T04:50:22.795Z,-1.27
2019-02-15T04:52:51.072Z,-1.29
2019-02-15T04:55:19.342Z,-1.30
2019-02-15T04:57:48.293Z,-1.29
2019-02-15T05:00:16.541Z,-1.33
2019-02-15T05:02:47.396Z,-1.34
2019-02-15T05:05:15.654Z,-1.38
2019-02-15T05:07:43.922Z,-1.42
2019-02-15T05:10:12.220Z,-1.46
2019-02-15T05:12:40.479Z,-1.46
2019-02-15T05:15:09.220Z,-1.47
2019-02-15T05:17:37.507Z,-1.48
2019-02-15T05:20:07.414Z,-1.51
2019-02-15T05:22:35.683Z,-1.54
2019-02-15T05:25:04.017Z,-1.58
2019-02-15T05:27:32.282Z,-1.60
2019-02-15T05:30:00.578Z,-1.56
2019-02-15T05:32:28.886Z,-1.56
2019-02-15T05:34:57.115Z,-1.54
2019-02-15T05:37:25.373Z,-1.54
2019-02-15T05:39:53.630Z,-1.53
2019-02-15T05:42:21.903Z,-1.53
2019-02-15T05:44:50.165Z,-1.53
2019-02-15T05:47:18.472Z,-1.54
2019-02-15T05:49:46.743Z,-1.57
2019-02-15T05:52:15.000Z,-1.58
2019-02-15T05:54:43.274Z,-1.60
2019-02-15T05:57:11.542Z,-1.63
2019-02-15T05:59:39.804Z,-1.65
2019-02-15T06:02:08.143Z,-1.71
2019-02-15T06:04:36.398Z,-1.76
2019-02-15T06:07:04.705Z,-1.83
2019-02-15T06:09:32.967Z,-1.90
2019-02-15T06:12:01.225Z,-1.94
2019-02-15T06:14:29.501Z,-1.98
2019-02-15T06:16:57.754Z,-2.00
2019-02-15T06:19:26.149Z,-2.04
2019-02-15T06:21:54.419Z,-2.07
2019-02-15T06:24:22.681Z,-2.08
2019-02-15T06:26:51.021Z,-2.17
2019-02-15T06:29:19.317Z,-2.21
2019-02-15T06:31:47.580Z,-2.27
2019-02-15T06:34:15.850Z,-2.22
2019-02-15T06:36:44.140Z,-2.16
2019-02-15T06:39:12.399Z,-2.11
2019-02-15T06:41:40.670Z,-2.09
2019-02-15T06:44:08.932Z,-2.06
2019-02-15T06:46:37.221Z,-2.04
2019-02-15T06:49:05.521Z,-2.02
2019-02-15T06:51:33.787Z,-2.00
2019-02-15T06:54:02.147Z,-1.97
2019-02-15T06:56:30.548Z,-1.97
2019-02-15T06:59:09.368Z,-1.99
2019-02-15T07:01:39.273Z,-1.99
2019-02-15T07:04:21.320Z,-1.96
2019-02-15T07:06:49.599Z,-1.93
2019-02-15T07:09:17.849Z,-1.90
2019-02-15T07:11:46.113Z,-1.87
2019-02-15T07:14:14.377Z,-1.80
2019-02-15T07:16:42.717Z,-1.76
2019-02-15T07:19:10.972Z,-1.70
2019-02-15T07:21:39.264Z,-1.68
2019-02-15T07:24:07.532Z,-1.64
2019-02-15T07:26:35.797Z,-1.60
2019-02-15T07:29:04.087Z,-1.56
2019-02-15T07:31:32.348Z,-1.51
2019-02-15T07:34:00.613Z,-1.47
2019-02-15T07:36:28.879Z,-1.41
2019-02-15T07:38:57.144Z,-1.36
2019-02-15T07:41:25.410Z,-1.32
2019-02-15T07:43:53.676Z,-1.28
2019-02-15T07:46:22.040Z,-1.23
2019-02-15T07:48:50.307Z,-1.16
2019-02-15T07:51:18.567Z,-1.13
2019-02-15T07:53:46.844Z,-1.06
2019-02-15T07:56:15.130Z,-1.11
2019-02-15T07:58:43.390Z,-1.07
2019-02-15T08:01:11.654Z,-1.07
2019-02-15T08:03:39.921Z,-1.04
2019-02-15T08:06:08.177Z,-1.01
2019-02-15T08:08:36.465Z,-0.98
2019-02-15T08:11:04.723Z,-0.91
2019-02-15T08:13:32.986Z,-0.86
2019-02-15T08:16:02.783Z,-0.80
2019-02-15T08:18:31.315Z,-0.71
2019-02-15T08:20:59.651Z,-0.64
2019-02-15T08:23:27.947Z,-0.56
2019-02-15T08:25:56.209Z,-0.47
2019-02-15T08:28:24.460Z,-0.39
2019-02-15T08:30:52.729Z,-0.29
2019-02-15T08:33:20.990Z,-0.20
2019-02-15T08:35:49.262Z,-0.12
2019-02-15T08:38:17.570Z,-0.02
2019-02-15T08:40:45.824Z,0.11
2019-02-15T08:43:14.093Z,0.25
2019-02-15T08:45:42.360Z,0.38
2019-02-15T08:48:10.619Z,0.53
2019-02-15T08:50:38.891Z,0.71
2019-02-15T08:53:07.158Z,0.95
2019-02-15T08:55:35.434Z,1.19
2019-02-15T08:58:03.709Z,1.44
2019-02-15T09:00:31.968Z,1.74
2019-02-15T09:03:00.245Z,2.04
2019-02-15T09:05:28.523Z,2.36
2019-02-15T09:07:56.785Z,2.65
2019-02-15T09:10:25.049Z,2.95
2019-02-15T09:12:53.301Z,3.21
2019-02-15T09:15:23.430Z,3.46
2019-02-15T09:17:51.718Z,3.71
2019-02-15T09:20:20.005Z,3.95
2019-02-15T09:22:48.268Z,4.20
2019-02-15T09:25:16.520Z,4.49
2019-02-15T09:27:46.425Z,4.75
2019-02-15T09:30:15.093Z,5.02
2019-02-15T09:32:43.351Z,5.31
2019-02-15T09:35:12.186Z,5.58
2019-02-15T09:37:40.441Z,5.83
2019-02-15T09:40:10.134Z,6.02
2019-02-15T09:42:38.404Z,6.18
2019-02-15T09:45:09.926Z,6.37
2019-02-15T09:47:38.190Z,6.55
2019-02-15T09:50:09.746Z,6.69
2019-02-15T09:52:38.771Z,6.91
2019-02-15T09:55:07.072Z,7.11
2019-02-15T09:57:35.334Z,7.24
2019-02-15T10:00:03.785Z,7.49
2019-02-15T10:02:32.058Z,7.71
2019-02-15T10:05:00.370Z,7.93
2019-02-15T10:07:28.643Z,8.13
2019-02-15T10:09:56.902Z,8.24
2019-02-15T10:12:25.171Z,8.43
2019-02-15T10:14:53.441Z,8.54
2019-02-15T10:17:21.713Z,8.67
2019-02-15T10:19:49.976Z,8.79
2019-02-15T10:22:18.248Z,8.93
2019-02-15T10:24:46.524Z,9.08
2019-02-15T10:27:14.789Z,9.22
2019-02-15T10:29:43.058Z,9.43
2019-02-15T10:32:11.321Z,9.54
2019-02-15T10:34:39.652Z,9.62
2019-02-15T10:37:07.946Z,9.69
2019-02-15T10:39:36.275Z,9.79
2019-02-15T10:42:04.544Z,9.86
2019-02-15T10:44:32.803Z,9.92
2019-02-15T10:47:01.073Z,10.11
2019-02-15T10:49:29.372Z,10.37
2019-02-15T10:51:57.642Z,10.73
2019-02-15T10:54:25.898Z,11.12
2019-02-15T10:56:54.260Z,11.37
2019-02-15T10:59:22.521Z,11.36
2019-02-15T11:01:50.781Z,11.51
2019-02-15T11:04:19.065Z,11.74
2019-02-15T11:06:47.390Z,12.01
2019-02-15T11:09:15.730Z,12.13
2019-02-15T11:11:43.991Z,12.22
2019-02-15T11:14:12.258Z,12.21
2019-02-15T11:16:46.953Z,12.23
2019-02-15T11:19:10.530Z,12.31
2019-02-15T11:21:38.793Z,12.21
2019-02-15T11:24:07.079Z,12.19
2019-02-15T11:26:35.361Z,12.31
2019-02-15T11:29:03.627Z,12.34
2019-02-15T11:31:31.881Z,12.38
2019-02-15T11:34:00.146Z,12.45
2019-02-15T11:36:29.804Z,12.59
2019-02-15T11:38:58.254Z,12.75
2019-02-15T11:41:26.591Z,12.84
2019-02-15T11:43:54.848Z,12.88
2019-02-15T11:46:23.115Z,12.83
2019-02-15T11:48:51.382Z,12.93
2019-02-15T11:51:19.653Z,12.93
2019-02-15T11:53:48.130Z,13.04
2019-02-15T11:56:16.366Z,13.02
2019-02-15T11:58:44.632Z,12.93
2019-02-15T12:01:12.893Z,13.03
2019-02-15T12:03:41.156Z,13.11
2019-02-15T12:06:09.442Z,13.14
2019-02-15T12:08:37.707Z,13.28
2019-02-15T12:11:05.966Z,13.28
2019-02-15T12:13:34.324Z,13.42
2019-02-15T12:16:02.732Z,13.42
2019-02-15T12:18:37.809Z,13.52
2019-02-15T12:21:06.173Z,13.58
2019-02-15T12:23:34.649Z,13.77
2019-02-15T12:26:02.908Z,13.98
2019-02-15T12:28:31.209Z,14.10
2019-02-15T12:30:59.460Z,13.84
2019-02-15T12:33:27.734Z,13.86
2019-02-15T12:35:56.014Z,13.73
2019-02-15T12:38:24.284Z,13.77
2019-02-15T12:40:52.621Z,13.88
2019-02-15T12:43:21.048Z,13.90
2019-02-15T12:45:49.535Z,13.95
2019-02-15T12:48:17.868Z,13.96
2019-02-15T12:50:46.214Z,14.09
2019-02-15T12:53:14.463Z,14.25
2019-02-15T12:55:42.732Z,14.36
2019-02-15T12:58:11.096Z,14.44
2019-02-15T13:00:39.367Z,14.50
2019-02-15T13:03:07.818Z,14.40
2019-02-15T13:05:36.101Z,14.27
2019-02-15T13:08:04.360Z,14.02
2019-02-15T13:10:34.549Z,13.89
2019-02-15T13:13:02.804Z,13.99
2019-02-15T13:15:31.241Z,14.16
2019-02-15T13:17:59.511Z,14.28
2019-02-15T13:20:27.891Z,14.34
2019-02-15T13:22:56.292Z,14.35
2019-02-15T13:25:24.745Z,14.37
2019-02-15T13:27:53.235Z,14.50
2019-02-15T13:30:21.664Z,14.57
2019-02-15T13:32:50.109Z,14.61
2019-02-15T13:35:23.469Z,14.59
2019-02-15T13:37:52.037Z,14.65
2019-02-15T13:40:20.323Z,14.73
2019-02-15T13:42:48.668Z,14.83
2019-02-15T13:45:17.217Z,11.03
2019-02-15T13:47:45.646Z,14.77
2019-02-15T13:50:15.036Z,14.73
2019-02-15T13:52:43.990Z,14.59
2019-02-15T13:55:12.339Z,14.34
2019-02-15T13:57:40.632Z,14.21
2019-02-15T14:00:14.465Z,14.16
2019-02-15T14:02:43.239Z,14.16
2019-02-15T14:05:12.354Z,14.09
2019-02-15T14:07:41.343Z,14.00
2019-02-15T14:10:14.295Z,13.92
2019-02-15T14:12:42.657Z,13.83
2019-02-15T14:15:12.146Z,13.76
2019-02-15T14:17:44.901Z,13.65
2019-02-15T14:20:13.962Z,13.56
2019-02-15T14:22:42.224Z,13.26
2019-02-15T14:25:12.675Z,13.13
2019-02-15T14:27:40.979Z,12.96
2019-02-15T14:30:11.735Z,12.92
2019-02-15T14:32:40.090Z,12.75
2019-02-15T14:35:10.158Z,12.61
2019-02-15T14:37:38.394Z,12.53
2019-02-15T14:40:09.112Z,12.31
2019-02-15T14:42:37.412Z,12.11
2019-02-15T14:45:07.461Z,11.95
2019-02-15T14:47:35.777Z,11.93
2019-02-15T14:50:04.619Z,11.87
2019-02-15T14:52:32.938Z,11.75
2019-02-15T14:55:01.203Z,11.67
2019-02-15T14:57:29.463Z,11.58
2019-02-15T14:59:57.830Z,11.49
2019-02-15T15:02:26.225Z,11.41
2019-02-15T15:04:54.508Z,11.30
2019-02-15T15:07:22.778Z,11.24
2019-02-15T15:09:51.064Z,11.25
2019-02-15T15:12:19.338Z,11.15
2019-02-15T15:14:47.636Z,11.13
2019-02-15T15:17:15.900Z,11.02
2019-02-15T15:19:45.082Z,10.92
2019-02-15T15:22:17.717Z,10.89
2019-02-15T15:24:46.072Z,10.83
2019-02-15T15:27:23.140Z,10.79
2019-02-15T15:29:59.993Z,10.79
2019-02-15T15:32:28.271Z,10.71
2019-02-15T15:35:02.110Z,10.65
2019-02-15T15:37:30.374Z,10.54
2019-02-15T15:39:58.657Z,10.45
2019-02-15T15:42:27.009Z,10.33
2019-02-15T15:44:55.363Z,10.30
2019-02-15T15:47:23.739Z,10.26
2019-02-15T15:49:52.036Z,10.22
2019-02-15T15:52:20.394Z,10.17
2019-02-15T15:54:48.677Z,10.08
2019-02-15T15:57:16.965Z,10.02
2019-02-15T15:59:45.238Z,9.95
2019-02-15T16:02:13.535Z,4.97
2019-02-15T16:04:41.792Z,9.87
2019-02-15T16:07:10.059Z,9.76
2019-02-15T16:09:38.318Z,9.70
2019-02-15T16:12:06.569Z,9.66
2019-02-15T16:14:34.856Z,9.62
2019-02-15T16:17:03.121Z,9.53
2019-02-15T16:19:31.385Z,9.47
2019-02-15T16:21:59.675Z,9.48
2019-02-15T16:24:27.937Z,9.40
2019-02-15T16:26:56.238Z,9.24
2019-02-15T16:29:24.562Z,9.16
2019-02-15T16:31:52.829Z,9.12
2019-02-15T16:34:21.094Z,9.08
2019-02-15T16:36:49.390Z,9.00
2019-02-15T16:39:17.696Z,8.88
2019-02-15T16:41:45.981Z,8.75
2019-02-15T16:44:14.248Z,8.61
2019-02-15T16:46:42.515Z,8.47
2019-02-15T16:49:10.791Z,8.35
2019-02-15T16:51:39.047Z,8.29
2019-02-15T16:54:07.315Z,8.18
2019-02-15T16:56:35.577Z,8.05
2019-02-15T16:59:03.843Z,7.98
2019-02-15T17:01:32.116Z,7.84
2019-02-15T17:04:00.378Z,7.76
2019-02-15T17:06:28.662Z,7.63
2019-02-15T17:08:56.923Z,7.51
2019-02-15T17:11:25.178Z,7.42
2019-02-15T17:13:53.482Z,7.40
2019-02-15T17:16:21.727Z,7.33
2019-02-15T17:18:52.235Z,7.25
2019-02-15T17:21:19.970Z,7.14
2019-02-15T17:23:48.232Z,6.99
2019-02-15T17:26:16.517Z,6.86
2019-02-15T17:28:44.775Z,6.77
2019-02-15T17:31:13.035Z,6.71
2019-02-15T17:33:41.300Z,6.66
2019-02-15T17:36:09.563Z,6.59
2019-02-15T17:38:37.884Z,6.50
2019-02-15T17:41:06.165Z,6.42
2019-02-15T17:43:34.450Z,6.29
2019-02-15T17:46:02.719Z,6.16
2019-02-15T17:48:30.973Z,6.04
2019-02-15T17:50:59.258Z,5.94
2019-02-15T17:53:27.529Z,5.87
2019-02-15T17:55:55.805Z,5.81
2019-02-15T17:58:24.062Z,5.79
2019-02-15T18:00:52.331Z,5.76
2019-02-15T18:03:20.613Z,5.73
2019-02-15T18:05:48.867Z,5.68
2019-02-15T18:08:17.133Z,5.59
2019-02-15T18:10:45.393Z,5.54
2019-02-15T18:13:13.658Z,5.51
2019-02-15T18:15:41.929Z,5.49
2019-02-15T18:18:10.191Z,5.47
2019-02-15T18:20:38.478Z,5.47
2019-02-15T18:23:06.749Z,5.45
2019-02-15T18:25:35.028Z,5.42
2019-02-15T18:28:03.286Z,5.40
2019-02-15T18:30:31.576Z,5.36
2019-02-15T18:32:59.838Z,5.33
2019-02-15T18:35:28.456Z,5.28
2019-02-15T18:37:56.719Z,5.21
2019-02-15T18:40:24.978Z,5.15
2019-02-15T18:42:53.390Z,5.11
2019-02-15T18:45:21.879Z,5.08
2019-02-15T18:47:50.471Z,5.05
2019-02-15T18:50:18.914Z,4.96
2019-02-15T18:52:47.191Z,4.99
2019-02-15T18:55:15.462Z,5.00
2019-02-15T18:57:43.715Z,5.01
2019-02-15T19:00:15.884Z,4.92
2019-02-15T19:02:46.090Z,4.88
2019-02-15T19:05:14.444Z,4.84
2019-02-15T19:07:42.700Z,4.85
2019-02-15T19:10:14.190Z,4.85
2019-02-15T19:12:42.528Z,4.83
2019-02-15T19:15:13.299Z,4.79
2019-02-15T19:17:41.571Z,4.78
2019-02-15T19:20:12.234Z,4.76
2019-02-15T19:22:40.504Z,4.72
2019-02-15T19:25:11.027Z,4.64
2019-02-15T19:27:40.930Z,4.60
2019-02-15T19:30:15.334Z,4.58
2019-02-15T19:32:43.698Z,4.55
2019-02-15T19:35:12.030Z,4.51
2019-02-15T19:37:41.959Z,4.48
2019-02-15T19:40:15.340Z,4.46
2019-02-15T19:42:44.962Z,4.45
2019-02-15T19:45:13.481Z,4.44
2019-02-15T19:47:41.776Z,4.41
2019-02-15T19:50:13.304Z,4.39
2019-02-15T19:52:41.692Z,4.37
2019-02-15T19:55:10.806Z,4.36
2019-02-15T19:57:39.072Z,4.37
2019-02-15T20:00:19.042Z,4.37
2019-02-15T20:02:49.129Z,4.34
2019-02-15T20:05:20.609Z,4.33
2019-02-15T20:07:49.028Z,4.31
2019-02-15T20:10:24.463Z,4.26
2019-02-15T20:12:56.974Z,4.24
2019-02-15T20:15:25.316Z,4.21
2019-02-15T20:17:53.663Z,4.14
2019-02-15T20:20:22.023Z,4.12
2019-02-15T20:22:59.306Z,4.09
2019-02-15T20:25:27.822Z,4.02
2019-02-15T20:27:56.312Z,4.01
2019-02-15T20:30:24.600Z,3.95
2019-02-15T20:32:52.998Z,3.92
2019-02-15T20:35:23.042Z,3.85
2019-02-15T20:37:51.861Z,3.79
2019-02-15T20:40:21.892Z,3.72
2019-02-15T20:42:52.074Z,3.65
2019-02-15T20:45:23.682Z,3.57
2019-02-15T20:47:52.315Z,3.52
2019-02-15T20:50:21.109Z,3.49
2019-02-15T20:52:49.473Z,3.47
2019-02-15T20:55:19.382Z,3.46
2019-02-15T20:57:49.826Z,3.43
2019-02-15T21:00:30.848Z,3.41
2019-02-15T21:02:59.284Z,3.40
2019-02-15T21:05:27.668Z,3.41
2019-02-15T21:07:55.954Z,3.41
2019-02-15T21:10:24.220Z,3.37
2019-02-15T21:12:52.545Z,3.33
2019-02-15T21:15:24.189Z,3.29
2019-02-15T21:17:52.589Z,3.26
2019-02-15T21:20:20.951Z,3.25
2019-02-15T21:22:49.310Z,3.24
2019-02-15T21:25:17.793Z,3.25
2019-02-15T21:27:46.049Z,3.24
2019-02-15T21:30:18.399Z,3.24
2019-02-15T21:32:46.696Z,3.24
2019-02-15T21:35:15.146Z,3.23
2019-02-15T21:37:43.406Z,3.21
2019-02-15T21:40:17.194Z,3.21
2019-02-15T21:42:45.462Z,3.18
2019-02-15T21:45:13.892Z,3.15
2019-02-15T21:47:42.164Z,3.12
2019-02-15T21:50:17.068Z,3.08
2019-02-15T21:52:44.353Z,3.04
2019-02-15T21:55:12.986Z,3.00
2019-02-15T21:57:41.349Z,2.97
2019-02-15T22:00:17.738Z,2.98
2019-02-15T22:02:46.023Z,2.97
2019-02-15T22:05:14.325Z,2.95
2019-02-15T22:07:42.586Z,2.95
2019-02-15T22:10:10.896Z,2.96
2019-02-15T22:12:39.183Z,2.96
2019-02-15T22:15:12.174Z,2.96
2019-02-15T22:17:40.472Z,2.91
2019-02-15T22:20:25.920Z,2.86
2019-02-15T22:22:46.674Z,2.79
2019-02-15T22:25:14.936Z,2.77
2019-02-15T22:27:43.223Z,2.74
2019-02-15T22:30:14.211Z,2.71
2019-02-15T22:32:42.798Z,2.68
2019-02-15T22:35:11.149Z,2.64
2019-02-15T22:37:41.111Z,2.62
2019-02-15T22:40:31.235Z,2.62
2019-02-15T22:43:05.295Z,2.62
2019-02-15T22:45:33.527Z,2.62
2019-02-15T22:48:01.814Z,2.61
2019-02-15T22:50:36.177Z,2.60
2019-02-15T22:53:00.071Z,2.53
2019-02-15T22:55:28.356Z,2.50
2019-02-15T22:57:56.614Z,2.49
2019-02-15T23:00:56.438Z,2.52
2019-02-15T23:03:26.465Z,2.52
2019-02-15T23:05:54.924Z,2.53
2019-02-15T23:08:23.164Z,2.52
2019-02-15T23:10:51.433Z,2.50
2019-02-15T23:13:19.758Z,2.04
2019-02-15T23:15:48.122Z,2.49
2019-02-15T23:18:16.370Z,2.45
2019-02-15T23:20:45.607Z,2.43
2019-02-15T23:23:14.022Z,2.41
2019-02-15T23:25:42.296Z,2.39
2019-02-15T23:28:10.566Z,2.39
2019-02-15T23:30:38.879Z,2.41
2019-02-15T23:33:07.163Z,2.39
2019-02-15T23:35:35.460Z,2.41
2019-02-15T23:38:03.785Z,2.42
2019-02-15T23:40:32.160Z,2.36
2019-02-15T23:43:00.433Z,2.32
2019-02-15T23:45:28.700Z,2.27
2019-02-15T23:47:56.975Z,2.19
2019-02-15T23:50:25.277Z,2.10
2019-02-15T23:52:53.546Z,2.05
2019-02-15T23:55:21.819Z,2.00
2019-02-15T23:57:50.078Z,1.96
